Chicago, Illinois
Traffic Map
Current Weather Conditions
Chicago, Illinois
Overcast Light Rain
Overcast

Feels Like: 0°
Wind Chill: Ceiling: 1200
Heat Index: Visibility: 3mi
Dew Point: Wind: 9mph
Humidity: 86% Direction: 110° (ESE)
Pressure: 29.74in Gusts: 0mph
Raw Report DataKMDW 221940Z 11008KT 3SM -RA BR BKN012 BKN017 OVC037 04/02 A2974 RMK AO2 P0000 T00390017
Traffic Incident Summary
Active as of:
Severity:
Category:
InformationThere was an issue retrieving the traffic information for this location. Please try a different location or try again shortly.
Advertisements
Track Severe Weather on mobile